sensor_id;sensor_type;location;lat;lon;timestamp;P1;durP1;ratioP1;P2;durP2;ratioP2
23400;SDS011;11873;49.300;8.920;2023-07-20T00:03:27;2.40;;;1.47;;
23400;SDS011;11873;49.300;8.920;2023-07-20T00:08:27;2.93;;;1.80;;
23400;SDS011;11873;49.300;8.920;2023-07-20T00:13:28;2.30;;;1.83;;
23400;SDS011;11873;49.300;8.920;2023-07-20T00:18:28;1.87;;;1.63;;
23400;SDS011;11873;49.300;8.920;2023-07-20T00:23:28;1.73;;;1.53;;
23400;SDS011;11873;49.300;8.920;2023-07-20T00:28:28;1.47;;;1.37;;
23400;SDS011;11873;49.300;8.920;2023-07-20T00:33:28;1.80;;;1.70;;
23400;SDS011;11873;49.300;8.920;2023-07-20T00:38:29;2.80;;;1.53;;
23400;SDS011;11873;49.300;8.920;2023-07-20T00:43:29;2.13;;;1.47;;
23400;SDS011;11873;49.300;8.920;2023-07-20T00:48:29;1.80;;;1.50;;
23400;SDS011;11873;49.300;8.920;2023-07-20T00:53:30;1.73;;;1.63;;
23400;SDS011;11873;49.300;8.920;2023-07-20T00:58:30;3.87;;;1.90;;
23400;SDS011;11873;49.300;8.920;2023-07-20T01:03:30;2.57;;;1.60;;
23400;SDS011;11873;49.300;8.920;2023-07-20T01:13:31;2.07;;;1.87;;
23400;SDS011;11873;49.300;8.920;2023-07-20T01:18:31;4.83;;;1.80;;
23400;SDS011;11873;49.300;8.920;2023-07-20T01:28:48;2.83;;;1.60;;
23400;SDS011;11873;49.300;8.920;2023-07-20T01:33:55;1.90;;;1.60;;
23400;SDS011;11873;49.300;8.920;2023-07-20T01:38:56;5.47;;;2.00;;
23400;SDS011;11873;49.300;8.920;2023-07-20T01:43:59;1.90;;;1.80;;
23400;SDS011;11873;49.300;8.920;2023-07-20T01:48:59;2.57;;;1.60;;
23400;SDS011;11873;49.300;8.920;2023-07-20T01:54:00;1.83;;;1.70;;
23400;SDS011;11873;49.300;8.920;2023-07-20T01:59:00;2.20;;;1.50;;
23400;SDS011;11873;49.300;8.920;2023-07-20T02:04:00;3.23;;;1.80;;
23400;SDS011;11873;49.300;8.920;2023-07-20T02:09:00;2.07;;;1.80;;
23400;SDS011;11873;49.300;8.920;2023-07-20T02:14:01;2.17;;;1.90;;
23400;SDS011;11873;49.300;8.920;2023-07-20T02:19:01;2.87;;;1.73;;
23400;SDS011;11873;49.300;8.920;2023-07-20T02:24:01;2.57;;;1.63;;
23400;SDS011;11873;49.300;8.920;2023-07-20T02:29:01;2.67;;;1.70;;
23400;SDS011;11873;49.300;8.920;2023-07-20T02:34:01;1.60;;;1.50;;
23400;SDS011;11873;49.300;8.920;2023-07-20T02:39:01;4.43;;;1.70;;
23400;SDS011;11873;49.300;8.920;2023-07-20T02:44:02;3.43;;;2.10;;
23400;SDS011;11873;49.300;8.920;2023-07-20T02:49:02;3.50;;;1.80;;
23400;SDS011;11873;49.300;8.920;2023-07-20T02:54:02;2.43;;;2.10;;
23400;SDS011;11873;49.300;8.920;2023-07-20T02:59:02;1.90;;;1.80;;
23400;SDS011;11873;49.300;8.920;2023-07-20T03:04:02;2.33;;;2.13;;
23400;SDS011;11873;49.300;8.920;2023-07-20T03:09:03;3.17;;;1.60;;
23400;SDS011;11873;49.300;8.920;2023-07-20T03:14:03;5.60;;;2.20;;
23400;SDS011;11873;49.300;8.920;2023-07-20T03:19:03;2.53;;;1.90;;
23400;SDS011;11873;49.300;8.920;2023-07-20T03:24:03;4.50;;;1.73;;
23400;SDS011;11873;49.300;8.920;2023-07-20T03:29:04;2.80;;;2.00;;
23400;SDS011;11873;49.300;8.920;2023-07-20T03:34:04;3.37;;;2.10;;
23400;SDS011;11873;49.300;8.920;2023-07-20T03:39:04;3.10;;;2.20;;
23400;SDS011;11873;49.300;8.920;2023-07-20T03:44:04;2.00;;;1.80;;
23400;SDS011;11873;49.300;8.920;2023-07-20T03:49:05;1.93;;;1.77;;
23400;SDS011;11873;49.300;8.920;2023-07-20T03:54:05;2.70;;;1.90;;
23400;SDS011;11873;49.300;8.920;2023-07-20T03:59:05;4.67;;;2.20;;
23400;SDS011;11873;49.300;8.920;2023-07-20T04:04:06;2.87;;;2.00;;
23400;SDS011;11873;49.300;8.920;2023-07-20T04:09:06;2.80;;;2.20;;
23400;SDS011;11873;49.300;8.920;2023-07-20T04:14:07;4.97;;;2.23;;
23400;SDS011;11873;49.300;8.920;2023-07-20T04:19:07;3.27;;;1.93;;
23400;SDS011;11873;49.300;8.920;2023-07-20T04:24:07;3.97;;;2.03;;
23400;SDS011;11873;49.300;8.920;2023-07-20T04:29:07;3.33;;;1.87;;
23400;SDS011;11873;49.300;8.920;2023-07-20T04:34:07;2.87;;;2.30;;
23400;SDS011;11873;49.300;8.920;2023-07-20T04:39:09;2.43;;;2.23;;
23400;SDS011;11873;49.300;8.920;2023-07-20T04:44:09;2.10;;;1.90;;
23400;SDS011;11873;49.300;8.920;2023-07-20T04:49:09;3.40;;;2.20;;
23400;SDS011;11873;49.300;8.920;2023-07-20T04:54:10;2.00;;;1.73;;
23400;SDS011;11873;49.300;8.920;2023-07-20T04:59:10;1.87;;;1.77;;
23400;SDS011;11873;49.300;8.920;2023-07-20T05:04:10;2.63;;;1.97;;
23400;SDS011;11873;49.300;8.920;2023-07-20T05:09:10;2.67;;;1.73;;
23400;SDS011;11873;49.300;8.920;2023-07-20T05:14:10;1.63;;;1.53;;
23400;SDS011;11873;49.300;8.920;2023-07-20T05:19:10;2.70;;;1.80;;
23400;SDS011;11873;49.300;8.920;2023-07-20T05:24:11;1.90;;;1.80;;
23400;SDS011;11873;49.300;8.920;2023-07-20T05:29:11;2.47;;;1.90;;
23400;SDS011;11873;49.300;8.920;2023-07-20T05:34:11;2.10;;;1.90;;
23400;SDS011;11873;49.300;8.920;2023-07-20T05:39:11;2.87;;;1.70;;
23400;SDS011;11873;49.300;8.920;2023-07-20T05:44:12;2.73;;;2.07;;
23400;SDS011;11873;49.300;8.920;2023-07-20T05:49:12;2.60;;;2.10;;
23400;SDS011;11873;49.300;8.920;2023-07-20T05:54:12;1.90;;;1.50;;
23400;SDS011;11873;49.300;8.920;2023-07-20T05:59:12;1.43;;;1.33;;
23400;SDS011;11873;49.300;8.920;2023-07-20T06:04:13;1.60;;;1.50;;
23400;SDS011;11873;49.300;8.920;2023-07-20T06:09:13;2.70;;;1.73;;
23400;SDS011;11873;49.300;8.920;2023-07-20T06:14:13;1.80;;;1.50;;
23400;SDS011;11873;49.300;8.920;2023-07-20T06:19:13;1.70;;;1.60;;
23400;SDS011;11873;49.300;8.920;2023-07-20T06:24:14;1.53;;;1.33;;
23400;SDS011;11873;49.300;8.920;2023-07-20T06:29:14;2.47;;;1.47;;
23400;SDS011;11873;49.300;8.920;2023-07-20T06:34:14;3.00;;;1.67;;
23400;SDS011;11873;49.300;8.920;2023-07-20T06:39:14;1.70;;;1.60;;
23400;SDS011;11873;49.300;8.920;2023-07-20T06:44:14;2.33;;;1.53;;
23400;SDS011;11873;49.300;8.920;2023-07-20T06:49:23;1.57;;;1.47;;
23400;SDS011;11873;49.300;8.920;2023-07-20T06:54:24;2.37;;;1.43;;
23400;SDS011;11873;49.300;8.920;2023-07-20T06:59:24;1.97;;;1.60;;
23400;SDS011;11873;49.300;8.920;2023-07-20T07:04:24;2.37;;;1.60;;
23400;SDS011;11873;49.300;8.920;2023-07-20T07:09:24;1.60;;;1.40;;
23400;SDS011;11873;49.300;8.920;2023-07-20T07:14:24;2.53;;;1.60;;
23400;SDS011;11873;49.300;8.920;2023-07-20T07:19:25;3.30;;;1.57;;
23400;SDS011;11873;49.300;8.920;2023-07-20T07:24:25;2.23;;;1.60;;
23400;SDS011;11873;49.300;8.920;2023-07-20T07:29:25;2.07;;;1.80;;
23400;SDS011;11873;49.300;8.920;2023-07-20T07:34:25;2.77;;;1.87;;
23400;SDS011;11873;49.300;8.920;2023-07-20T07:39:25;1.73;;;1.63;;
23400;SDS011;11873;49.300;8.920;2023-07-20T07:44:26;1.97;;;1.73;;
23400;SDS011;11873;49.300;8.920;2023-07-20T07:49:26;1.53;;;1.43;;
23400;SDS011;11873;49.300;8.920;2023-07-20T07:54:26;2.00;;;1.83;;
23400;SDS011;11873;49.300;8.920;2023-07-20T07:59:27;2.50;;;1.70;;
23400;SDS011;11873;49.300;8.920;2023-07-20T08:04:27;3.27;;;1.60;;
23400;SDS011;11873;49.300;8.920;2023-07-20T08:09:27;1.83;;;1.50;;
23400;SDS011;11873;49.300;8.920;2023-07-20T08:14:27;1.27;;;1.27;;
23400;SDS011;11873;49.300;8.920;2023-07-20T08:19:27;1.73;;;1.40;;
23400;SDS011;11873;49.300;8.920;2023-07-20T08:24:28;2.53;;;1.50;;
23400;SDS011;11873;49.300;8.920;2023-07-20T08:29:28;1.77;;;1.67;;
23400;SDS011;11873;49.300;8.920;2023-07-20T08:34:28;1.70;;;1.60;;
23400;SDS011;11873;49.300;8.920;2023-07-20T08:39:28;3.03;;;2.40;;
23400;SDS011;11873;49.300;8.920;2023-07-20T08:44:28;2.47;;;1.50;;
23400;SDS011;11873;49.300;8.920;2023-07-20T08:49:29;3.47;;;1.50;;
23400;SDS011;11873;49.300;8.920;2023-07-20T08:54:30;1.57;;;1.20;;
23400;SDS011;11873;49.300;8.920;2023-07-20T08:59:30;2.23;;;1.50;;
23400;SDS011;11873;49.300;8.920;2023-07-20T09:04:31;2.50;;;1.30;;
23400;SDS011;11873;49.300;8.920;2023-07-20T09:09:31;2.27;;;1.50;;
23400;SDS011;11873;49.300;8.920;2023-07-20T09:14:31;1.83;;;1.73;;
23400;SDS011;11873;49.300;8.920;2023-07-20T09:19:31;2.87;;;1.80;;
23400;SDS011;11873;49.300;8.920;2023-07-20T09:24:33;2.53;;;1.67;;
23400;SDS011;11873;49.300;8.920;2023-07-20T09:29:33;1.67;;;1.30;;
23400;SDS011;11873;49.300;8.920;2023-07-20T09:34:33;1.53;;;1.20;;
23400;SDS011;11873;49.300;8.920;2023-07-20T09:39:35;1.70;;;1.27;;
23400;SDS011;11873;49.300;8.920;2023-07-20T09:44:44;2.87;;;1.70;;
23400;SDS011;11873;49.300;8.920;2023-07-20T09:49:45;1.60;;;1.50;;
23400;SDS011;11873;49.300;8.920;2023-07-20T09:54:45;1.90;;;1.47;;
23400;SDS011;11873;49.300;8.920;2023-07-20T09:59:46;1.40;;;1.30;;
23400;SDS011;11873;49.300;8.920;2023-07-20T10:04:46;1.73;;;1.63;;
23400;SDS011;11873;49.300;8.920;2023-07-20T10:09:54;2.07;;;1.40;;
23400;SDS011;11873;49.300;8.920;2023-07-20T10:20:24;3.93;;;2.67;;
23400;SDS011;11873;49.300;8.920;2023-07-20T10:25:25;2.43;;;2.10;;
23400;SDS011;11873;49.300;8.920;2023-07-20T10:30:25;1.63;;;1.47;;
23400;SDS011;11873;49.300;8.920;2023-07-20T10:35:26;1.77;;;1.67;;
23400;SDS011;11873;49.300;8.920;2023-07-20T10:40:29;2.30;;;2.10;;
23400;SDS011;11873;49.300;8.920;2023-07-20T10:45:48;2.90;;;1.60;;
23400;SDS011;11873;49.300;8.920;2023-07-20T10:56:09;1.17;;;1.17;;
23400;SDS011;11873;49.300;8.920;2023-07-20T11:01:16;2.03;;;1.80;;
23400;SDS011;11873;49.300;8.920;2023-07-20T11:11:27;2.73;;;2.03;;
23400;SDS011;11873;49.300;8.920;2023-07-20T11:16:32;2.10;;;1.20;;
23400;SDS011;11873;49.300;8.920;2023-07-20T11:21:36;1.40;;;1.30;;
23400;SDS011;11873;49.300;8.920;2023-07-20T11:26:55;1.33;;;1.30;;
23400;SDS011;11873;49.300;8.920;2023-07-20T11:31:55;1.63;;;1.20;;
23400;SDS011;11873;49.300;8.920;2023-07-20T11:36:56;1.70;;;1.60;;
23400;SDS011;11873;49.300;8.920;2023-07-20T11:41:56;1.50;;;1.40;;
23400;SDS011;11873;49.300;8.920;2023-07-20T11:47:30;3.83;;;1.80;;
23400;SDS011;11873;49.300;8.920;2023-07-20T11:52:23;2.63;;;1.60;;
23400;SDS011;11873;49.300;8.920;2023-07-20T11:57:23;1.93;;;1.40;;
23400;SDS011;11873;49.300;8.920;2023-07-20T12:02:24;3.40;;;1.50;;
23400;SDS011;11873;49.300;8.920;2023-07-20T12:07:25;2.10;;;1.50;;
23400;SDS011;11873;49.300;8.920;2023-07-20T12:12:26;2.13;;;1.97;;
23400;SDS011;11873;49.300;8.920;2023-07-20T12:17:27;2.10;;;1.90;;
23400;SDS011;11873;49.300;8.920;2023-07-20T12:22:27;2.87;;;1.50;;
23400;SDS011;11873;49.300;8.920;2023-07-20T12:27:28;1.93;;;1.70;;
23400;SDS011;11873;49.300;8.920;2023-07-20T12:32:28;1.50;;;1.30;;
23400;SDS011;11873;49.300;8.920;2023-07-20T12:37:28;1.30;;;1.20;;
23400;SDS011;11873;49.300;8.920;2023-07-20T12:42:28;2.13;;;1.53;;
23400;SDS011;11873;49.300;8.920;2023-07-20T12:47:28;2.40;;;1.40;;
23400;SDS011;11873;49.300;8.920;2023-07-20T12:52:29;2.90;;;1.77;;
23400;SDS011;11873;49.300;8.920;2023-07-20T12:57:29;1.63;;;1.53;;
23400;SDS011;11873;49.300;8.920;2023-07-20T13:02:30;1.67;;;1.57;;
23400;SDS011;11873;49.300;8.920;2023-07-20T13:07:30;2.37;;;1.77;;
23400;SDS011;11873;49.300;8.920;2023-07-20T13:12:32;1.47;;;1.10;;
23400;SDS011;11873;49.300;8.920;2023-07-20T13:17:33;2.70;;;1.60;;
23400;SDS011;11873;49.300;8.920;2023-07-20T13:22:33;1.60;;;1.50;;
23400;SDS011;11873;49.300;8.920;2023-07-20T13:27:33;1.30;;;1.10;;
23400;SDS011;11873;49.300;8.920;2023-07-20T13:32:34;1.10;;;1.07;;
23400;SDS011;11873;49.300;8.920;2023-07-20T13:37:34;2.73;;;1.33;;
23400;SDS011;11873;49.300;8.920;2023-07-20T13:42:34;1.30;;;1.20;;
23400;SDS011;11873;49.300;8.920;2023-07-20T13:47:35;1.37;;;1.27;;
23400;SDS011;11873;49.300;8.920;2023-07-20T13:52:35;1.53;;;1.43;;
23400;SDS011;11873;49.300;8.920;2023-07-20T13:57:35;3.27;;;1.30;;
23400;SDS011;11873;49.300;8.920;2023-07-20T14:02:35;1.13;;;1.10;;
23400;SDS011;11873;49.300;8.920;2023-07-20T14:07:35;1.43;;;1.23;;
23400;SDS011;11873;49.300;8.920;2023-07-20T14:12:36;1.50;;;1.37;;
23400;SDS011;11873;49.300;8.920;2023-07-20T14:17:36;1.73;;;1.10;;
23400;SDS011;11873;49.300;8.920;2023-07-20T14:22:36;1.43;;;1.33;;
23400;SDS011;11873;49.300;8.920;2023-07-20T14:27:36;1.83;;;1.20;;
23400;SDS011;11873;49.300;8.920;2023-07-20T14:32:40;1.50;;;1.40;;
23400;SDS011;11873;49.300;8.920;2023-07-20T14:37:41;1.40;;;1.30;;
23400;SDS011;11873;49.300;8.920;2023-07-20T14:42:41;1.40;;;1.30;;
23400;SDS011;11873;49.300;8.920;2023-07-20T14:47:42;2.80;;;1.57;;
23400;SDS011;11873;49.300;8.920;2023-07-20T14:52:42;1.10;;;1.10;;
23400;SDS011;11873;49.300;8.920;2023-07-20T14:57:42;2.43;;;1.53;;
23400;SDS011;11873;49.300;8.920;2023-07-20T15:02:42;0.97;;;0.97;;
23400;SDS011;11873;49.300;8.920;2023-07-20T15:07:43;1.20;;;1.10;;
23400;SDS011;11873;49.300;8.920;2023-07-20T15:12:43;4.87;;;1.60;;
23400;SDS011;11873;49.300;8.920;2023-07-20T15:17:43;1.10;;;1.10;;
23400;SDS011;11873;49.300;8.920;2023-07-20T15:22:44;1.40;;;1.30;;
23400;SDS011;11873;49.300;8.920;2023-07-20T15:27:44;1.40;;;1.20;;
23400;SDS011;11873;49.300;8.920;2023-07-20T15:32:44;2.63;;;1.23;;
23400;SDS011;11873;49.300;8.920;2023-07-20T15:37:44;1.30;;;1.20;;
23400;SDS011;11873;49.300;8.920;2023-07-20T15:42:44;1.30;;;1.20;;
23400;SDS011;11873;49.300;8.920;2023-07-20T15:47:44;2.00;;;1.67;;
23400;SDS011;11873;49.300;8.920;2023-07-20T15:52:45;1.30;;;1.20;;
23400;SDS011;11873;49.300;8.920;2023-07-20T15:57:45;2.83;;;1.37;;
23400;SDS011;11873;49.300;8.920;2023-07-20T16:02:45;1.27;;;1.10;;
23400;SDS011;11873;49.300;8.920;2023-07-20T16:07:45;2.47;;;1.73;;
23400;SDS011;11873;49.300;8.920;2023-07-20T16:12:45;1.73;;;1.20;;
23400;SDS011;11873;49.300;8.920;2023-07-20T16:17:46;1.20;;;1.10;;
23400;SDS011;11873;49.300;8.920;2023-07-20T16:22:46;1.20;;;1.13;;
23400;SDS011;11873;49.300;8.920;2023-07-20T16:27:46;1.40;;;1.17;;
23400;SDS011;11873;49.300;8.920;2023-07-20T16:32:46;1.50;;;1.40;;
23400;SDS011;11873;49.300;8.920;2023-07-20T16:37:46;1.37;;;1.27;;
23400;SDS011;11873;49.300;8.920;2023-07-20T16:42:46;1.30;;;1.20;;
23400;SDS011;11873;49.300;8.920;2023-07-20T16:47:47;2.20;;;1.40;;
23400;SDS011;11873;49.300;8.920;2023-07-20T16:52:47;1.50;;;1.40;;
23400;SDS011;11873;49.300;8.920;2023-07-20T16:57:47;1.37;;;1.30;;
23400;SDS011;11873;49.300;8.920;2023-07-20T17:02:47;1.13;;;1.13;;
23400;SDS011;11873;49.300;8.920;2023-07-20T17:07:47;2.90;;;1.20;;
23400;SDS011;11873;49.300;8.920;2023-07-20T17:12:48;1.27;;;1.20;;
23400;SDS011;11873;49.300;8.920;2023-07-20T17:17:48;1.10;;;1.00;;
23400;SDS011;11873;49.300;8.920;2023-07-20T17:22:48;2.17;;;1.30;;
23400;SDS011;11873;49.300;8.920;2023-07-20T17:27:48;1.00;;;1.00;;
23400;SDS011;11873;49.300;8.920;2023-07-20T17:32:48;1.33;;;1.30;;
23400;SDS011;11873;49.300;8.920;2023-07-20T17:37:49;1.23;;;1.13;;
23400;SDS011;11873;49.300;8.920;2023-07-20T17:42:49;1.47;;;1.30;;
23400;SDS011;11873;49.300;8.920;2023-07-20T17:47:49;1.07;;;1.03;;
23400;SDS011;11873;49.300;8.920;2023-07-20T17:52:49;1.30;;;1.20;;
23400;SDS011;11873;49.300;8.920;2023-07-20T17:57:50;1.27;;;1.17;;
23400;SDS011;11873;49.300;8.920;2023-07-20T18:02:50;1.10;;;1.10;;
23400;SDS011;11873;49.300;8.920;2023-07-20T18:07:50;2.90;;;1.20;;
23400;SDS011;11873;49.300;8.920;2023-07-20T18:12:50;1.50;;;1.40;;
23400;SDS011;11873;49.300;8.920;2023-07-20T18:17:50;2.17;;;1.77;;
23400;SDS011;11873;49.300;8.920;2023-07-20T18:22:51;1.90;;;1.70;;
23400;SDS011;11873;49.300;8.920;2023-07-20T18:27:51;1.27;;;1.17;;
23400;SDS011;11873;49.300;8.920;2023-07-20T18:32:51;1.40;;;1.30;;
23400;SDS011;11873;49.300;8.920;2023-07-20T18:37:51;1.20;;;1.10;;
23400;SDS011;11873;49.300;8.920;2023-07-20T18:42:52;1.30;;;1.20;;
23400;SDS011;11873;49.300;8.920;2023-07-20T18:47:52;2.83;;;1.37;;
23400;SDS011;11873;49.300;8.920;2023-07-20T18:52:52;1.43;;;1.33;;
23400;SDS011;11873;49.300;8.920;2023-07-20T18:57:53;1.60;;;1.47;;
23400;SDS011;11873;49.300;8.920;2023-07-20T19:02:53;1.87;;;1.40;;
23400;SDS011;11873;49.300;8.920;2023-07-20T19:07:53;2.10;;;1.40;;
23400;SDS011;11873;49.300;8.920;2023-07-20T19:12:53;4.97;;;1.63;;
23400;SDS011;11873;49.300;8.920;2023-07-20T19:17:53;2.00;;;1.40;;
23400;SDS011;11873;49.300;8.920;2023-07-20T19:22:54;2.13;;;1.50;;
23400;SDS011;11873;49.300;8.920;2023-07-20T19:27:54;1.97;;;1.70;;
23400;SDS011;11873;49.300;8.920;2023-07-20T19:32:54;2.23;;;1.53;;
23400;SDS011;11873;49.300;8.920;2023-07-20T19:37:54;1.70;;;1.60;;
23400;SDS011;11873;49.300;8.920;2023-07-20T19:42:54;1.50;;;1.40;;
23400;SDS011;11873;49.300;8.920;2023-07-20T19:47:55;1.63;;;1.17;;
23400;SDS011;11873;49.300;8.920;2023-07-20T19:52:55;2.57;;;1.17;;
23400;SDS011;11873;49.300;8.920;2023-07-20T19:57:55;2.03;;;1.20;;
23400;SDS011;11873;49.300;8.920;2023-07-20T20:02:55;1.47;;;1.37;;
23400;SDS011;11873;49.300;8.920;2023-07-20T20:07:55;3.17;;;1.50;;
23400;SDS011;11873;49.300;8.920;2023-07-20T20:12:55;1.40;;;1.30;;
23400;SDS011;11873;49.300;8.920;2023-07-20T20:17:56;1.70;;;1.60;;
23400;SDS011;11873;49.300;8.920;2023-07-20T20:22:56;3.20;;;1.90;;
23400;SDS011;11873;49.300;8.920;2023-07-20T20:27:56;4.57;;;1.97;;
23400;SDS011;11873;49.300;8.920;2023-07-20T20:32:57;5.13;;;2.00;;
23400;SDS011;11873;49.300;8.920;2023-07-20T20:37:57;8.97;;;2.00;;
23400;SDS011;11873;49.300;8.920;2023-07-20T20:42:57;4.30;;;2.27;;
23400;SDS011;11873;49.300;8.920;2023-07-20T20:47:57;7.27;;;2.40;;
23400;SDS011;11873;49.300;8.920;2023-07-20T20:52:57;8.93;;;2.17;;
23400;SDS011;11873;49.300;8.920;2023-07-20T20:57:57;2.53;;;2.10;;
23400;SDS011;11873;49.300;8.920;2023-07-20T21:02:58;4.77;;;2.30;;
23400;SDS011;11873;49.300;8.920;2023-07-20T21:07:58;7.63;;;2.43;;
23400;SDS011;11873;49.300;8.920;2023-07-20T21:12:58;8.30;;;2.53;;
23400;SDS011;11873;49.300;8.920;2023-07-20T21:17:58;1.80;;;1.70;;
23400;SDS011;11873;49.300;8.920;2023-07-20T21:22:58;3.03;;;1.50;;
23400;SDS011;11873;49.300;8.920;2023-07-20T21:27:59;2.10;;;1.70;;
23400;SDS011;11873;49.300;8.920;2023-07-20T21:32:59;3.13;;;1.70;;
23400;SDS011;11873;49.300;8.920;2023-07-20T21:38:00;6.87;;;1.83;;
23400;SDS011;11873;49.300;8.920;2023-07-20T21:43:00;2.40;;;1.80;;
23400;SDS011;11873;49.300;8.920;2023-07-20T21:48:00;2.73;;;1.67;;
23400;SDS011;11873;49.300;8.920;2023-07-20T21:53:00;2.43;;;1.70;;
23400;SDS011;11873;49.300;8.920;2023-07-20T21:58:00;4.20;;;2.03;;
23400;SDS011;11873;49.300;8.920;2023-07-20T22:03:01;2.37;;;1.73;;
23400;SDS011;11873;49.300;8.920;2023-07-20T22:08:01;3.83;;;1.87;;
23400;SDS011;11873;49.300;8.920;2023-07-20T22:13:01;4.97;;;1.93;;
23400;SDS011;11873;49.300;8.920;2023-07-20T22:18:02;5.10;;;2.17;;
23400;SDS011;11873;49.300;8.920;2023-07-20T22:23:02;2.43;;;1.70;;
23400;SDS011;11873;49.300;8.920;2023-07-20T22:28:03;6.20;;;1.93;;
23400;SDS011;11873;49.300;8.920;2023-07-20T22:33:03;4.93;;;2.33;;
23400;SDS011;11873;49.300;8.920;2023-07-20T22:38:03;6.33;;;2.00;;
23400;SDS011;11873;49.300;8.920;2023-07-20T22:43:03;2.73;;;1.80;;
23400;SDS011;11873;49.300;8.920;2023-07-20T22:48:03;2.00;;;1.80;;
23400;SDS011;11873;49.300;8.920;2023-07-20T22:53:04;1.93;;;1.70;;
23400;SDS011;11873;49.300;8.920;2023-07-20T22:58:05;2.63;;;1.43;;
23400;SDS011;11873;49.300;8.920;2023-07-20T23:03:05;1.60;;;1.50;;
23400;SDS011;11873;49.300;8.920;2023-07-20T23:08:05;5.27;;;1.57;;
23400;SDS011;11873;49.300;8.920;2023-07-20T23:13:05;2.23;;;1.73;;
23400;SDS011;11873;49.300;8.920;2023-07-20T23:18:05;1.83;;;1.73;;
23400;SDS011;11873;49.300;8.920;2023-07-20T23:23:05;2.30;;;1.80;;
23400;SDS011;11873;49.300;8.920;2023-07-20T23:28:06;4.70;;;2.10;;
23400;SDS011;11873;49.300;8.920;2023-07-20T23:33:06;2.70;;;2.20;;
23400;SDS011;11873;49.300;8.920;2023-07-20T23:38:06;2.00;;;1.80;;
23400;SDS011;11873;49.300;8.920;2023-07-20T23:43:06;1.97;;;1.77;;
23400;SDS011;11873;49.300;8.920;2023-07-20T23:48:07;3.63;;;1.93;;
23400;SDS011;11873;49.300;8.920;2023-07-20T23:53:07;3.30;;;1.97;;
23400;SDS011;11873;49.300;8.920;2023-07-20T23:58:07;5.57;;;1.83;;
